Time;durP1;ratioP1;P1;durP2;ratioP2;P2;SDS_P1;SDS_P2;PMS_P1;PMS_P2;Temp;Humidity;BMP_temperature;BMP_pressure;BME280_temperature;BME280_humidity;BME280_pressure;Samples;Min_cycle;Max_cycle;Signal;HPM_P1;HPM_P2
2022/07/04 00:01:00;;;;;;;1.83;1.05;;;23.60;99.90;;;;;;7401042;19;20143;-84
2022/07/04 00:03:26;;;;;;;2.47;1.10;;;23.40;99.90;;;;;;7398309;19;20509;-86
2022/07/04 00:05:52;;;;;;;2.08;0.75;;;23.40;99.90;;;;;;7397957;19;20206;-85
2022/07/04 00:08:18;;;;;;;1.33;0.85;;;23.50;99.90;;;;;;7400514;19;20139;-85
2022/07/04 00:10:43;;;;;;;1.80;1.00;;;23.50;99.90;;;;;;7403164;19;20199;-85
2022/07/04 00:13:09;;;;;;;3.00;1.30;;;23.80;99.90;;;;;;7401588;19;20490;-85
2022/07/04 00:15:47;;;;;;;2.75;0.95;;;23.90;99.90;;;;;;7399686;19;20161;-86
2022/07/04 00:18:12;;;;;;;1.15;0.80;;;23.80;99.90;;;;;;7399343;19;20131;-85
2022/07/04 00:20:38;;;;;;;1.17;0.70;;;23.70;99.90;;;;;;7399106;19;20147;-84
2022/07/04 00:23:04;;;;;;;1.10;1.00;;;23.70;99.90;;;;;;7396570;19;20593;-84
2022/07/04 00:25:30;;;;;;;1.38;1.00;;;23.70;99.90;;;;;;7397408;19;20142;-84
2022/07/04 00:27:56;;;;;;;1.58;0.80;;;23.60;99.90;;;;;;7400469;19;20596;-85
2022/07/04 00:30:21;;;;;;;1.58;1.08;;;23.70;99.90;;;;;;7396727;19;20154;-84
2022/07/04 00:32:47;;;;;;;1.73;1.00;;;23.80;99.90;;;;;;7400495;19;20147;-84
2022/07/04 00:35:13;;;;;;;2.13;0.98;;;23.60;99.90;;;;;;7400763;19;20135;-84
2022/07/04 00:37:39;;;;;;;1.73;0.90;;;23.70;99.90;;;;;;7400990;19;20134;-84
2022/07/04 00:40:05;;;;;;;1.15;1.00;;;23.80;99.90;;;;;;7398983;19;20143;-84
2022/07/04 00:42:31;;;;;;;1.70;0.98;;;23.60;99.90;;;;;;7395147;19;20136;-84
2022/07/04 00:44:57;;;;;;;1.48;1.00;;;23.60;99.90;;;;;;7398941;19;20612;-83
2022/07/04 00:47:23;;;;;;;1.52;1.10;;;23.60;99.90;;;;;;7397811;19;20152;-84
2022/07/04 00:49:48;;;;;;;1.40;0.82;;;23.50;99.90;;;;;;7396506;19;20131;-85
2022/07/04 00:52:16;;;;;;;1.27;1.10;;;23.30;99.90;;;;;;7400009;19;20154;-85
2022/07/04 00:54:42;;;;;;;2.05;0.90;;;23.50;99.90;;;;;;7401875;19;21911;-84
2022/07/04 00:57:08;;;;;;;1.30;1.00;;;23.50;99.90;;;;;;7397558;19;20142;-85
2022/07/04 00:59:34;;;;;;;1.65;0.90;;;23.50;99.90;;;;;;7398041;19;20612;-84
2022/07/04 01:02:00;;;;;;;1.38;0.98;;;23.50;99.90;;;;;;7392708;19;20138;-85
2022/07/04 01:04:25;;;;;;;0.98;0.90;;;23.40;99.90;;;;;;7398114;19;20202;-85
2022/07/04 01:06:53;;;;;;;1.45;0.93;;;23.20;99.90;;;;;;7396287;19;20146;-84
2022/07/04 01:09:19;;;;;;;2.45;1.17;;;23.30;99.90;;;;;;7395878;19;20138;-85
2022/07/04 01:11:44;;;;;;;1.35;0.90;;;23.30;99.90;;;;;;7402130;19;20630;-84
2022/07/04 01:14:10;;;;;;;1.15;0.80;;;23.20;99.90;;;;;;7401025;19;20139;-84
2022/07/04 01:16:36;;;;;;;3.38;0.85;;;23.30;99.90;;;;;;7398069;19;20138;-85
2022/07/04 01:19:02;;;;;;;0.88;0.70;;;23.10;99.90;;;;;;7397896;19;20154;-85
2022/07/04 01:21:28;;;;;;;3.75;1.20;;;22.90;99.90;;;;;;7398111;19;20154;-84
2022/07/04 01:23:54;;;;;;;3.17;1.30;;;23.00;99.90;;;;;;7398354;19;20633;-84
2022/07/04 01:26:20;;;;;;;1.00;0.90;;;23.20;99.90;;;;;;7395390;19;20165;-85
2022/07/04 01:28:46;;;;;;;1.95;1.02;;;23.10;99.90;;;;;;7396224;19;20143;-84
2022/07/04 01:31:12;;;;;;;1.08;0.80;;;23.20;99.90;;;;;;7398685;19;20143;-85
2022/07/04 01:33:38;;;;;;;1.50;0.95;;;23.20;99.90;;;;;;7403253;19;20146;-84
2022/07/04 01:36:04;;;;;;;1.60;0.80;;;23.20;99.90;;;;;;7399426;19;20130;-84
2022/07/04 01:38:30;;;;;;;1.42;1.00;;;23.10;99.90;;;;;;7396704;19;20146;-85
2022/07/04 01:40:56;;;;;;;3.13;0.90;;;23.10;99.90;;;;;;7398191;19;20142;-85
2022/07/04 01:43:22;;;;;;;1.63;0.85;;;23.00;99.90;;;;;;7395805;19;20217;-84
2022/07/04 01:45:48;;;;;;;3.65;1.00;;;23.10;99.90;;;;;;7397425;19;20142;-85
2022/07/04 01:48:14;;;;;;;0.95;0.80;;;23.10;99.90;;;;;;7397770;19;20181;-85
2022/07/04 01:50:40;;;;;;;1.08;0.98;;;23.10;99.90;;;;;;7396972;19;20499;-85
2022/07/04 01:53:06;;;;;;;1.08;0.90;;;23.00;99.90;;;;;;7398721;19;20131;-85
2022/07/04 01:55:32;;;;;;;1.33;1.10;;;23.10;99.90;;;;;;7398398;19;20150;-85
2022/07/04 01:57:59;;;;;;;1.88;0.88;;;23.10;99.90;;;;;;7399150;19;20489;-84
2022/07/04 02:03:10;;;;;;;2.22;0.93;;;22.80;99.90;;;;;;7396210;19;20150;-85
2022/07/04 02:05:37;;;;;;;1.92;1.02;;;23.00;99.90;;;;;;7397616;19;20489;-84
2022/07/04 02:08:04;;;;;;;1.20;0.90;;;23.00;99.90;;;;;;7395017;19;20135;-84
2022/07/04 02:10:30;;;;;;;2.90;0.90;;;23.10;99.90;;;;;;7397900;19;20143;-84
2022/07/04 02:13:01;;;;;;;1.52;1.10;;;23.10;99.90;;;;;;7395479;19;20201;-84
2022/07/04 02:15:38;;;;;;;1.17;0.90;;;23.00;99.90;;;;;;7396438;19;20146;-84
2022/07/04 02:18:06;;;;;;;1.20;0.80;;;22.90;99.90;;;;;;7401290;19;20186;-83
2022/07/04 02:20:33;;;;;;;1.45;0.77;;;22.80;99.90;;;;;;7396274;19;20174;-85
2022/07/04 02:23:04;;;;;;;2.55;0.98;;;22.70;99.90;;;;;;7396676;19;20146;-84
2022/07/04 02:25:33;;;;;;;3.05;1.17;;;22.80;99.90;;;;;;7399196;19;20130;-83
2022/07/04 02:27:59;;;;;;;1.40;0.90;;;22.80;99.90;;;;;;7397307;19;20202;-84
2022/07/04 02:30:28;;;;;;;4.65;1.10;;;22.80;99.90;;;;;;7397371;19;20127;-83
2022/07/04 02:32:54;;;;;;;0.70;0.70;;;22.70;99.90;;;;;;7396277;19;20185;-84
2022/07/04 02:35:20;;;;;;;2.40;0.80;;;22.60;99.90;;;;;;7396831;19;20150;-85
2022/07/04 02:37:45;;;;;;;4.00;1.00;;;22.50;99.90;;;;;;7397998;19;20134;-84
2022/07/04 02:40:11;;;;;;;1.50;1.05;;;22.60;99.90;;;;;;7401665;19;20145;-84
2022/07/04 02:42:38;;;;;;;1.08;0.90;;;22.30;99.90;;;;;;7398801;19;20510;-83
2022/07/04 02:45:05;;;;;;;3.42;1.00;;;22.40;99.90;;;;;;7394161;19;20760;-84
2022/07/04 02:47:30;;;;;;;1.67;1.00;;;22.60;99.90;;;;;;7393754;19;20150;-83
2022/07/04 02:49:56;;;;;;;0.93;0.80;;;22.50;99.90;;;;;;7393958;19;20218;-84
2022/07/04 02:52:22;;;;;;;3.65;1.10;;;22.40;99.90;;;;;;7396143;19;20130;-84
2022/07/04 02:54:48;;;;;;;4.38;1.20;;;22.30;99.90;;;;;;7396042;19;20138;-85
2022/07/04 02:57:15;;;;;;;1.42;0.93;;;22.40;99.90;;;;;;7393734;19;20135;-84
2022/07/04 02:59:41;;;;;;;2.65;1.17;;;22.50;99.90;;;;;;7397111;19;20480;-84
2022/07/04 03:02:07;;;;;;;3.97;1.02;;;22.30;99.90;;;;;;7394867;19;20135;-86
2022/07/04 03:04:33;;;;;;;1.13;0.85;;;22.10;99.90;;;;;;7393838;19;20147;-85
2022/07/04 03:06:59;;;;;;;2.05;1.10;;;22.30;99.90;;;;;;7395012;19;20151;-85
2022/07/04 03:09:28;;;;;;;2.58;0.90;;;22.40;99.90;;;;;;7396164;19;20142;-84
2022/07/04 03:11:53;;;;;;;3.50;0.80;;;22.30;99.90;;;;;;7394400;19;20155;-84
2022/07/04 03:14:20;;;;;;;4.10;1.23;;;22.00;99.90;;;;;;7396499;19;20608;-85
2022/07/04 03:16:46;;;;;;;2.00;0.80;;;21.90;99.90;;;;;;7397403;19;20127;-85
2022/07/04 03:19:12;;;;;;;1.92;1.00;;;21.90;99.90;;;;;;7398035;19;20131;-85
2022/07/04 03:21:38;;;;;;;3.50;1.00;;;22.00;99.90;;;;;;7394807;19;20613;-84
2022/07/04 03:24:04;;;;;;;2.42;1.10;;;22.10;99.90;;;;;;7393234;19;20210;-84
2022/07/04 03:26:31;;;;;;;2.85;1.20;;;22.10;99.90;;;;;;7398467;19;20145;-83
2022/07/04 03:28:58;;;;;;;2.30;0.93;;;22.20;99.90;;;;;;7401655;19;20452;-85
2022/07/04 03:31:25;;;;;;;0.80;0.75;;;22.20;99.90;;;;;;7402197;19;20666;-85
2022/07/04 03:33:52;;;;;;;1.70;0.90;;;22.00;99.90;;;;;;7400641;19;20175;-84
2022/07/04 03:36:18;;;;;;;1.23;0.90;;;22.20;99.90;;;;;;7401654;19;20146;-86
2022/07/04 03:38:44;;;;;;;1.23;0.90;;;22.00;99.90;;;;;;7400981;19;20134;-84
2022/07/04 03:41:10;;;;;;;2.88;1.00;;;22.10;99.90;;;;;;7402648;19;20218;-84
2022/07/04 03:43:36;;;;;;;2.00;1.00;;;22.20;99.90;;;;;;7401903;19;20136;-84
2022/07/04 03:46:03;;;;;;;2.60;1.00;;;22.10;99.90;;;;;;7401095;19;20147;-83
2022/07/04 03:48:29;;;;;;;2.03;1.10;;;22.10;99.90;;;;;;7400263;19;20131;-84
2022/07/04 03:50:55;;;;;;;2.92;0.90;;;22.10;99.90;;;;;;7399536;19;20150;-84
2022/07/04 03:53:21;;;;;;;1.88;0.90;;;21.80;99.90;;;;;;7399040;19;20640;-85
2022/07/04 03:55:47;;;;;;;2.90;1.23;;;21.80;99.90;;;;;;7400595;19;20139;-85
2022/07/04 03:58:13;;;;;;;1.77;1.13;;;21.90;99.90;;;;;;7401815;19;20129;-85
2022/07/04 04:00:39;;;;;;;2.45;1.10;;;21.80;99.90;;;;;;7398533;19;20617;-84
2022/07/04 04:05:26;;;;;;;2.67;1.30;;;22.00;99.90;;;;;;7399541;19;20635;-84
2022/07/04 04:05:51;;;;;;;1.67;1.02;;;22.00;99.90;;;;;;7398864;19;20142;-84
2022/07/04 04:08:17;;;;;;;1.83;1.10;;;21.80;99.90;;;;;;7399079;19;20131;-83
2022/07/04 04:10:42;;;;;;;2.90;1.17;;;21.90;99.90;;;;;;7400767;19;20203;-85
2022/07/04 04:13:08;;;;;;;1.08;0.98;;;21.80;99.90;;;;;;7400048;19;20131;-84
2022/07/04 04:15:34;;;;;;;2.22;1.05;;;21.80;99.90;;;;;;7399638;19;20222;-85
2022/07/04 04:18:00;;;;;;;2.35;1.20;;;21.70;99.90;;;;;;7399940;19;20123;-85
2022/07/04 04:20:26;;;;;;;3.33;1.10;;;21.80;99.90;;;;;;7399051;19;20135;-84
2022/07/04 04:22:53;;;;;;;2.28;1.17;;;21.80;99.90;;;;;;7396555;19;20137;-83
2022/07/04 04:25:18;;;;;;;1.65;1.10;;;21.90;99.90;;;;;;7400402;19;20642;-81
2022/07/04 04:27:44;;;;;;;2.03;1.48;;;22.00;99.90;;;;;;7400103;19;20211;-84
2022/07/04 04:30:13;;;;;;;3.53;1.10;;;22.00;99.90;;;;;;7397887;19;20135;-83
2022/07/04 04:32:39;;;;;;;1.50;1.05;;;21.80;99.90;;;;;;7397635;19;20238;-83
2022/07/04 04:35:06;;;;;;;3.70;1.13;;;21.90;99.90;;;;;;7399599;19;20135;-83
2022/07/04 04:37:32;;;;;;;2.40;0.80;;;21.80;99.90;;;;;;7398089;19;20160;-84
2022/07/04 04:39:57;;;;;;;1.85;1.20;;;21.80;99.90;;;;;;7400675;19;20143;-84
2022/07/04 04:42:23;;;;;;;0.82;0.82;;;21.50;99.90;;;;;;7393965;19;20142;-82
2022/07/04 04:44:49;;;;;;;1.42;1.05;;;21.80;99.90;;;;;;7397378;19;20146;-85
2022/07/04 04:47:15;;;;;;;4.47;1.15;;;21.90;99.90;;;;;;7395636;19;20131;-83
2022/07/04 04:49:41;;;;;;;2.30;1.10;;;21.90;99.90;;;;;;7401214;19;20511;-85
2022/07/04 04:52:07;;;;;;;1.55;0.90;;;22.00;99.90;;;;;;7398121;19;20234;-81
2022/07/04 04:54:33;;;;;;;2.35;0.90;;;21.80;99.90;;;;;;7397285;19;20143;-84
2022/07/04 04:56:59;;;;;;;2.55;1.08;;;21.90;99.90;;;;;;7397228;19;20143;-83
2022/07/04 04:59:27;;;;;;;2.20;1.15;;;22.00;99.90;;;;;;7396652;19;20164;-83
2022/07/04 05:01:53;;;;;;;1.60;1.10;;;21.90;99.90;;;;;;7396331;19;20754;-82
2022/07/04 05:04:20;;;;;;;2.67;1.00;;;21.90;99.90;;;;;;7394966;19;20202;-83
2022/07/04 05:06:45;;;;;;;1.70;1.02;;;22.00;99.90;;;;;;7396380;19;20134;-83
2022/07/04 05:09:11;;;;;;;2.22;1.10;;;22.00;99.90;;;;;;7398835;19;20202;-83
2022/07/04 05:11:38;;;;;;;2.20;1.20;;;22.00;99.90;;;;;;7398024;19;20161;-84
2022/07/04 05:14:03;;;;;;;1.48;1.10;;;22.00;99.90;;;;;;7398586;19;20142;-83
2022/07/04 05:16:29;;;;;;;1.48;1.00;;;22.00;99.90;;;;;;7400715;19;20151;-83
2022/07/04 05:18:55;;;;;;;2.38;1.10;;;22.10;99.90;;;;;;7395624;19;20143;-82
2022/07/04 05:21:21;;;;;;;2.45;0.90;;;22.10;99.90;;;;;;7396889;19;20154;-84
2022/07/04 05:23:47;;;;;;;1.92;1.20;;;22.00;99.90;;;;;;7396185;19;20146;-83
2022/07/04 05:26:13;;;;;;;3.45;1.02;;;22.00;99.90;;;;;;7396791;19;20151;-82
2022/07/04 05:28:38;;;;;;;2.30;0.98;;;21.90;99.90;;;;;;7394735;19;20151;-84
2022/07/04 05:31:04;;;;;;;2.55;1.13;;;21.70;99.90;;;;;;7397990;19;20182;-83
2022/07/04 05:33:30;;;;;;;4.53;1.20;;;21.70;99.90;;;;;;7397137;19;20154;-82
2022/07/04 05:35:56;;;;;;;2.42;1.30;;;21.80;99.90;;;;;;7396381;19;20488;-82
2022/07/04 05:38:21;;;;;;;1.90;1.10;;;21.80;99.90;;;;;;7394713;19;20149;-81
2022/07/04 05:40:47;;;;;;;2.67;1.23;;;22.00;99.90;;;;;;7398565;19;20149;-82
2022/07/04 05:43:13;;;;;;;2.05;1.02;;;22.10;99.90;;;;;;7394477;19;20217;-82
2022/07/04 05:45:39;;;;;;;2.65;0.90;;;22.20;99.90;;;;;;7393870;19;20970;-84
2022/07/04 05:48:05;;;;;;;1.17;1.08;;;22.20;99.90;;;;;;7393806;19;20581;-82
2022/07/04 05:50:32;;;;;;;2.38;1.60;;;22.20;99.90;;;;;;7393818;19;20146;-78
2022/07/04 05:52:58;;;;;;;3.10;1.42;;;22.00;99.90;;;;;;7393947;19;20202;-79
2022/07/04 05:55:23;;;;;;;2.83;1.20;;;22.10;99.90;;;;;;7395941;19;20171;-79
2022/07/04 05:57:49;;;;;;;1.75;1.00;;;22.10;99.90;;;;;;7393347;19;20917;-80
2022/07/04 06:00:16;;;;;;;2.15;1.05;;;22.20;99.90;;;;;;7392956;19;20141;-77
2022/07/04 06:02:42;;;;;;;2.03;1.00;;;22.20;99.90;;;;;;7390415;19;20166;-80
2022/07/04 06:05:08;;;;;;;8.82;5.75;;;22.20;99.90;;;;;;7389836;19;20134;-78
2022/07/04 06:07:34;;;;;;;2.22;1.23;;;22.30;99.90;;;;;;7395005;19;20142;-81
2022/07/04 06:10:00;;;;;;;2.10;1.20;;;22.50;99.90;;;;;;7394419;19;20135;-82
2022/07/04 06:12:26;;;;;;;1.20;1.00;;;22.50;99.90;;;;;;7389580;19;20150;-81
2022/07/04 06:14:52;;;;;;;2.40;1.50;;;22.20;99.90;;;;;;7391537;19;20134;-82
2022/07/04 06:17:17;;;;;;;3.15;1.20;;;22.30;99.90;;;;;;7391446;19;20162;-79
2022/07/04 06:19:43;;;;;;;1.30;0.90;;;22.50;99.90;;;;;;7389936;19;20222;-80
2022/07/04 06:22:09;;;;;;;1.80;0.98;;;22.40;99.90;;;;;;7389845;19;20166;-79
2022/07/04 06:24:34;;;;;;;2.35;1.40;;;22.40;99.90;;;;;;7388081;19;20139;-80
2022/07/04 06:27:03;;;;;;;4.00;2.50;;;22.40;99.90;;;;;;7388887;19;20148;-78
2022/07/04 06:29:28;;;;;;;2.22;1.25;;;22.40;99.90;;;;;;7386839;19;20171;-81
2022/07/04 06:31:54;;;;;;;5.30;1.10;;;22.50;99.90;;;;;;7390078;19;20127;-81
2022/07/04 06:37:04;;;;;;;2.92;1.00;;;22.80;99.90;;;;;;7390123;19;20653;-77
2022/07/04 06:39:31;;;;;;;2.30;1.17;;;23.00;99.90;;;;;;7391354;19;20130;-78
2022/07/04 06:41:57;;;;;;;3.25;0.98;;;23.20;99.90;;;;;;7396346;19;20153;-80
2022/07/04 06:44:22;;;;;;;2.70;1.10;;;23.40;99.90;;;;;;7390994;19;20186;-80
2022/07/04 06:46:48;;;;;;;6.57;1.88;;;23.70;99.90;;;;;;7391625;19;20488;-79
2022/07/04 06:49:14;;;;;;;2.05;0.90;;;23.70;99.90;;;;;;7389399;19;20173;-80
2022/07/04 06:51:40;;;;;;;3.58;1.38;;;23.60;99.90;;;;;;7389296;19;20647;-81
2022/07/04 06:54:06;;;;;;;1.65;1.10;;;23.70;99.90;;;;;;7391361;19;20585;-81
2022/07/04 06:56:32;;;;;;;4.88;1.30;;;23.70;99.90;;;;;;7388181;19;20134;-78
2022/07/04 06:58:57;;;;;;;2.78;1.00;;;23.70;99.90;;;;;;7392953;19;20135;-79
2022/07/04 07:01:23;;;;;;;2.80;0.93;;;23.60;99.90;;;;;;7393080;19;20135;-82
2022/07/04 07:03:50;;;;;;;1.17;0.95;;;23.30;99.90;;;;;;7397949;19;20201;-80
2022/07/04 07:06:16;;;;;;;5.53;1.50;;;23.50;99.90;;;;;;7398417;19;20151;-79
2022/07/04 07:08:42;;;;;;;2.67;1.23;;;23.50;99.90;;;;;;7395795;19;20609;-79
2022/07/04 07:11:12;;;;;;;1.98;1.45;;;23.40;99.90;;;;;;7399593;19;20508;-82
2022/07/04 07:13:50;;;;;;;2.15;1.23;;;23.50;99.90;;;;;;7398578;19;20153;-80
2022/07/04 07:16:17;;;;;;;2.28;1.27;;;23.60;99.90;;;;;;7395767;19;20176;-78
2022/07/04 07:18:43;;;;;;;2.60;1.10;;;23.80;99.90;;;;;;7396471;19;20222;-79
2022/07/04 07:21:09;;;;;;;2.05;1.10;;;23.80;99.90;;;;;;7396235;19;20156;-81
2022/07/04 07:23:41;;;;;;;1.63;1.10;;;23.70;99.90;;;;;;7396090;19;20194;-81
2022/07/04 07:26:08;;;;;;;3.03;1.35;;;23.60;99.90;;;;;;7396593;19;20127;-80
2022/07/04 07:28:34;;;;;;;1.80;1.20;;;23.50;99.90;;;;;;7399350;19;20138;-79
2022/07/04 07:31:02;;;;;;;1.48;1.05;;;23.60;99.90;;;;;;7401545;19;20150;-79
2022/07/04 07:33:27;;;;;;;2.88;1.30;;;23.60;99.90;;;;;;7396217;19;20130;-80
2022/07/04 07:35:53;;;;;;;1.85;1.17;;;23.50;99.90;;;;;;7398304;19;20147;-81
2022/07/04 07:38:19;;;;;;;2.55;1.50;;;23.30;99.90;;;;;;7398291;19;20170;-81
2022/07/04 07:40:45;;;;;;;2.08;1.35;;;23.40;99.90;;;;;;7397058;19;20231;-81
2022/07/04 07:43:10;;;;;;;2.13;1.85;;;23.30;99.90;;;;;;7393721;19;20147;-81
2022/07/04 07:45:37;;;;;;;3.33;1.90;;;23.20;99.90;;;;;;7397332;19;20589;-81
2022/07/04 07:48:04;;;;;;;1.95;1.70;;;23.10;99.90;;;;;;7406577;19;20134;-82
2022/07/04 07:50:30;;;;;;;3.53;1.50;;;23.20;99.90;;;;;;7399203;19;20137;-81
2022/07/04 07:52:56;;;;;;;3.67;2.67;;;23.10;99.90;;;;;;7400977;19;20221;-80
2022/07/04 07:55:21;;;;;;;2.50;1.60;;;23.00;99.90;;;;;;7395603;19;20167;-78
2022/07/04 07:57:47;;;;;;;2.38;1.58;;;23.20;99.90;;;;;;7396555;19;20138;-80
2022/07/04 08:00:13;;;;;;;2.75;1.35;;;23.40;99.90;;;;;;7396499;19;20131;-81
2022/07/04 08:05:24;;;;;;;3.13;1.00;;;23.50;99.90;;;;;;7398191;19;20135;-79
2022/07/04 08:07:49;;;;;;;4.30;1.58;;;23.60;99.90;;;;;;7394706;19;20172;-79
2022/07/04 08:10:15;;;;;;;2.30;1.20;;;23.60;99.90;;;;;;7400910;19;20153;-80
2022/07/04 08:12:41;;;;;;;3.08;1.60;;;23.70;99.90;;;;;;7395745;19;20155;-79
2022/07/04 08:15:08;;;;;;;2.15;1.63;;;23.80;99.90;;;;;;7399344;19;20142;-83
2022/07/04 08:17:34;;;;;;;3.47;1.85;;;23.80;99.90;;;;;;7401467;19;20142;-81
2022/07/04 08:20:03;;;;;;;2.55;1.42;;;23.70;99.90;;;;;;7399522;19;20162;-79
2022/07/04 08:22:29;;;;;;;2.42;1.20;;;23.60;99.90;;;;;;7407795;19;20150;-82
2022/07/04 08:24:54;;;;;;;8.80;1.67;;;23.50;99.90;;;;;;7397029;19;20153;-83
2022/07/04 08:27:22;;;;;;;3.10;1.67;;;23.30;99.90;;;;;;7406384;19;20138;-81
2022/07/04 08:29:48;;;;;;;1.85;1.38;;;23.30;99.90;;;;;;7402978;19;20159;-81
2022/07/04 08:32:14;;;;;;;2.45;1.48;;;23.30;99.90;;;;;;7395849;19;20158;-83
2022/07/04 08:34:40;;;;;;;2.28;1.35;;;23.20;99.90;;;;;;7400021;19;20143;-80
2022/07/04 08:37:06;;;;;;;1.70;1.10;;;23.10;99.90;;;;;;7396165;19;20142;-81
2022/07/04 08:39:31;;;;;;;3.30;1.58;;;23.10;99.90;;;;;;7394553;19;20480;-80
2022/07/04 08:42:03;;;;;;;1.88;1.10;;;23.10;99.90;;;;;;7396063;19;20158;-83
2022/07/04 08:44:30;;;;;;;2.22;1.27;;;23.20;99.90;;;;;;7397006;19;20151;-81
2022/07/04 08:46:56;;;;;;;2.30;1.83;;;23.30;99.90;;;;;;7395760;19;20146;-81
2022/07/04 08:49:26;;;;;;;3.35;1.40;;;23.50;99.90;;;;;;7398301;19;20685;-82
2022/07/04 08:51:57;;;;;;;2.22;1.23;;;23.70;99.90;;;;;;7394919;19;20146;-82
2022/07/04 08:59:55;;;;;;;3.60;1.60;;;23.70;99.90;;;;;;7395407;19;20146;-80
2022/07/04 09:02:22;;;;;;;2.95;1.52;;;23.60;99.90;;;;;;7390252;19;20131;-78
2022/07/04 09:04:49;;;;;;;4.50;1.38;;;23.60;99.90;;;;;;7393698;19;20226;-79
2022/07/04 09:07:15;;;;;;;1.95;1.60;;;23.70;99.90;;;;;;7396081;19;20658;-80
2022/07/04 09:09:41;;;;;;;6.03;1.70;;;23.80;99.90;;;;;;7397804;19;20153;-80
2022/07/04 09:12:10;;;;;;;2.45;1.30;;;23.90;99.90;;;;;;7398574;19;20134;-79
2022/07/04 09:14:37;;;;;;;1.67;1.20;;;24.10;99.90;;;;;;7392327;19;20134;-78
2022/07/04 09:17:04;;;;;;;2.90;1.33;;;24.10;99.90;;;;;;7400894;19;20504;-81
2022/07/04 09:19:30;;;;;;;4.45;1.25;;;24.30;99.90;;;;;;7395484;19;20151;-78
2022/07/04 09:21:56;;;;;;;3.72;1.65;;;24.40;99.90;;;;;;7396365;19;20163;-79
2022/07/04 09:24:45;;;;;;;2.47;1.23;;;24.60;99.90;;;;;;7397308;19;20143;-81
2022/07/04 09:27:12;;;;;;;1.67;1.20;;;24.70;99.90;;;;;;7394216;19;20152;-80
2022/07/04 09:29:54;;;;;;;4.35;1.33;;;24.60;99.90;;;;;;7398525;19;20139;-78
2022/07/04 09:32:41;;;;;;;1.77;1.27;;;24.60;99.90;;;;;;7413100;19;20135;-80
2022/07/04 09:35:12;;;;;;;2.28;2.08;;;24.70;99.90;;;;;;7395238;19;20170;-80
2022/07/04 09:37:41;;;;;;;4.57;2.08;;;24.80;99.90;;;;;;7390712;19;20138;-83
2022/07/04 09:40:11;;;;;;;3.30;1.50;;;24.70;99.90;;;;;;7400813;19;20241;-80
2022/07/04 09:42:41;;;;;;;4.57;1.60;;;24.50;99.90;;;;;;7404916;19;20135;-82
2022/07/04 09:45:11;;;;;;;1.70;1.40;;;25.20;99.90;;;;;;7396859;19;20138;-80
2022/07/04 09:47:39;;;;;;;2.83;1.48;;;25.60;99.90;;;;;;7391075;19;20159;-78
2022/07/04 09:50:18;;;;;;;4.30;1.25;;;25.60;99.90;;;;;;7390442;19;20174;-81
2022/07/04 09:53:04;;;;;;;3.17;1.25;;;25.70;99.90;;;;;;7394274;19;20508;-80
2022/07/04 09:55:37;;;;;;;4.15;1.55;;;25.90;99.90;;;;;;7393218;19;20613;-81
2022/07/04 09:58:04;;;;;;;1.67;1.08;;;25.80;99.90;;;;;;7392006;19;20552;-83
2022/07/04 10:00:39;;;;;;;1.75;1.20;;;25.90;99.90;;;;;;7395915;19;20222;-80
2022/07/04 10:03:26;;;;;;;2.47;1.10;;;25.80;99.90;;;;;;7392138;19;20154;-81
2022/07/04 10:06:12;;;;;;;1.88;1.40;;;25.70;99.90;;;;;;7395736;19;20202;-82
2022/07/04 10:08:40;;;;;;;4.47;1.65;;;25.60;99.90;;;;;;7393119;19;20145;-81
2022/07/04 10:11:06;;;;;;;2.35;1.40;;;25.60;99.90;;;;;;7394706;19;20131;-81
2022/07/04 10:13:32;;;;;;;4.57;2.80;;;25.80;99.90;;;;;;7389077;19;20522;-86
2022/07/04 10:15:59;;;;;;;2.22;1.88;;;25.80;99.90;;;;;;7398683;19;20660;-81
2022/07/04 10:18:25;;;;;;;1.23;0.93;;;25.70;99.90;;;;;;7391906;19;20626;-82
2022/07/04 10:20:53;;;;;;;2.25;1.20;;;25.50;99.90;;;;;;7391490;19;20550;-82
2022/07/04 10:23:21;;;;;;;3.40;1.30;;;25.50;99.90;;;;;;7390713;19;20151;-82
2022/07/04 10:25:49;;;;;;;1.50;1.20;;;25.70;99.90;;;;;;7394632;19;20159;-82
2022/07/04 10:28:16;;;;;;;1.42;1.10;;;26.00;99.40;;;;;;7390500;19;20497;-80
2022/07/04 10:30:43;;;;;;;2.20;1.20;;;25.80;99.10;;;;;;7391863;19;20509;-82
2022/07/04 10:33:10;;;;;;;1.90;1.20;;;25.70;99.10;;;;;;7389192;19;20139;-83
2022/07/04 10:35:55;;;;;;;3.60;1.50;;;25.60;99.20;;;;;;7390796;19;20226;-80
2022/07/04 10:38:26;;;;;;;3.75;1.55;;;25.70;99.10;;;;;;7391317;19;20142;-80
2022/07/04 10:41:05;;;;;;;2.33;1.30;;;25.50;99.00;;;;;;7391708;19;20198;-80
2022/07/04 10:43:34;;;;;;;3.03;1.35;;;25.70;98.90;;;;;;7392598;19;20715;-81
2022/07/04 10:46:14;;;;;;;2.03;1.38;;;25.90;99.00;;;;;;7395755;19;20138;-82
2022/07/04 10:48:52;;;;;;;3.58;1.60;;;26.10;99.00;;;;;;7392667;19;20127;-82
2022/07/04 10:51:43;;;;;;;3.22;1.40;;;26.10;98.70;;;;;;7389741;19;20130;-81
2022/07/04 10:54:17;;;;;;;2.28;1.30;;;26.00;98.90;;;;;;7395144;19;20135;-83
2022/07/04 10:56:49;;;;;;;3.03;1.48;;;25.90;99.50;;;;;;7393004;19;20138;-82
2022/07/04 10:59:25;;;;;;;1.65;1.17;;;25.90;99.40;;;;;;7391002;19;20188;-83
2022/07/04 11:02:13;;;;;;;2.33;1.10;;;25.90;99.30;;;;;;7393800;19;20193;-82
2022/07/04 11:04:51;;;;;;;3.35;1.52;;;25.90;99.40;;;;;;7388169;19;20245;-80
2022/07/04 11:07:19;;;;;;;3.22;1.42;;;25.90;99.30;;;;;;7397335;19;20134;-79
2022/07/04 11:09:45;;;;;;;1.90;1.35;;;25.80;99.10;;;;;;7392497;19;20145;-79
2022/07/04 11:12:14;;;;;;;6.57;1.80;;;25.80;99.30;;;;;;7391008;19;20154;-79
2022/07/04 11:14:47;;;;;;;4.43;3.72;;;26.00;99.50;;;;;;7390067;19;20139;-83
2022/07/04 11:17:19;;;;;;;1.92;1.30;;;26.30;99.10;;;;;;7391234;19;20168;-81
2022/07/04 11:19:46;;;;;;;2.67;1.50;;;26.40;98.70;;;;;;7390958;19;20215;-83
2022/07/04 11:22:22;;;;;;;11.05;7.55;;;26.50;98.30;;;;;;7389696;19;20553;-82
2022/07/04 11:24:48;;;;;;;3.60;1.80;;;26.50;98.20;;;;;;7391903;19;20154;-83
2022/07/04 11:27:15;;;;;;;2.30;1.45;;;26.50;98.50;;;;;;7394141;19;20142;-84
2022/07/04 11:29:54;;;;;;;2.28;1.33;;;26.40;98.40;;;;;;7390120;19;20528;-81
2022/07/04 11:32:21;;;;;;;2.45;1.58;;;26.30;98.30;;;;;;7394230;19;20520;-81
2022/07/04 11:34:48;;;;;;;3.80;1.38;;;26.50;98.20;;;;;;7391249;19;20138;-81
2022/07/04 11:37:14;;;;;;;2.92;1.00;;;26.40;98.10;;;;;;7392262;19;20143;-84
2022/07/04 11:39:40;;;;;;;3.85;1.23;;;26.20;98.20;;;;;;7391421;19;20138;-82
2022/07/04 11:45:05;;;;;;;2.58;1.35;;;26.10;98.40;;;;;;7391773;19;20158;-84
2022/07/04 11:47:37;;;;;;;2.97;1.30;;;26.20;98.30;;;;;;7400088;19;20159;-81
2022/07/04 11:50:09;;;;;;;1.30;1.20;;;26.20;98.00;;;;;;7397641;19;20147;-81
2022/07/04 11:52:38;;;;;;;4.55;1.30;;;26.10;98.20;;;;;;7409390;19;20142;-82
2022/07/04 11:55:05;;;;;;;1.52;1.10;;;26.30;97.90;;;;;;7402720;19;20206;-81
2022/07/04 11:57:36;;;;;;;4.10;1.40;;;26.50;97.90;;;;;;7397183;19;20155;-83
2022/07/04 12:00:16;;;;;;;1.98;1.30;;;26.20;97.70;;;;;;7397329;19;20154;-85
2022/07/04 12:02:47;;;;;;;2.83;2.22;;;26.30;98.10;;;;;;7397116;19;20138;-82
2022/07/04 12:05:14;;;;;;;1.55;1.10;;;26.70;97.70;;;;;;7397285;19;20222;-83
2022/07/04 12:07:45;;;;;;;2.95;1.42;;;26.70;97.60;;;;;;7397828;19;20156;-82
2022/07/04 12:10:17;;;;;;;1.98;1.30;;;26.60;97.70;;;;;;7399420;19;20135;-82
2022/07/04 12:12:54;;;;;;;2.35;1.25;;;26.70;97.80;;;;;;7396245;19;20266;-82
2022/07/04 12:15:24;;;;;;;2.25;0.90;;;26.90;97.10;;;;;;7401585;19;20610;-81
2022/07/04 12:17:55;;;;;;;1.92;1.10;;;26.90;97.20;;;;;;7396415;19;20151;-82
2022/07/04 12:20:24;;;;;;;2.58;1.50;;;26.70;97.70;;;;;;7398086;19;20131;-83
2022/07/04 12:22:52;;;;;;;2.20;1.10;;;26.90;97.40;;;;;;7395165;19;20147;-82
2022/07/04 12:25:27;;;;;;;2.42;1.60;;;27.00;96.90;;;;;;7400123;19;20139;-80
2022/07/04 12:28:01;;;;;;;1.75;1.30;;;27.00;97.00;;;;;;7396871;19;20142;-82
2022/07/04 12:30:29;;;;;;;3.28;1.20;;;27.00;97.00;;;;;;7395875;19;20194;-82
2022/07/04 12:33:01;;;;;;;4.57;1.23;;;27.20;96.60;;;;;;7399174;19;20138;-82
2022/07/04 12:35:39;;;;;;;2.17;1.20;;;27.30;96.20;;;;;;7393952;19;20163;-81
2022/07/04 12:38:16;;;;;;;1.98;1.20;;;27.40;96.00;;;;;;7396340;19;20173;-83
2022/07/04 12:41:03;;;;;;;1.58;1.00;;;27.30;95.90;;;;;;7399191;19;20150;-83
2022/07/04 12:43:41;;;;;;;3.03;1.05;;;27.40;95.70;;;;;;7394925;19;20158;-82
2022/07/04 12:46:25;;;;;;;1.15;1.05;;;27.50;95.40;;;;;;7394106;19;20151;-83
2022/07/04 12:48:52;;;;;;;2.65;1.40;;;27.50;95.40;;;;;;7400792;19;20169;-83
2022/07/04 12:51:29;;;;;;;1.90;1.00;;;27.50;95.30;;;;;;7397692;19;20580;-82
2022/07/04 12:53:57;;;;;;;1.65;0.88;;;27.30;95.40;;;;;;7396969;19;20149;-83
2022/07/04 12:56:32;;;;;;;1.83;1.13;;;27.10;95.60;;;;;;7394256;19;20146;-82
2022/07/04 12:58:59;;;;;;;3.45;1.20;;;27.20;95.90;;;;;;7393675;19;20617;-81
2022/07/04 13:01:25;;;;;;;1.25;1.08;;;27.40;95.20;;;;;;7395194;19;20245;-84
2022/07/04 13:03:51;;;;;;;3.70;1.20;;;27.50;95.00;;;;;;7397780;19;20563;-82
2022/07/04 13:06:17;;;;;;;3.60;1.50;;;27.40;95.40;;;;;;7398226;19;20146;-84
2022/07/04 13:08:43;;;;;;;3.60;1.40;;;27.60;95.10;;;;;;7398851;19;20134;-82